sensor_id;sensor_type;location;lat;lon;timestamp;pressure;altitude;pressure_sealevel;temperature;humidity
77019;BME280;66044;53.142;17.962;2023-08-31T00:00:46;100155.45;;;15.08;78.86
77019;BME280;66044;53.142;17.962;2023-08-31T00:03:27;100151.70;;;15.05;78.97
77019;BME280;66044;53.142;17.962;2023-08-31T00:05:55;100150.69;;;15.03;79.10
77019;BME280;66044;53.142;17.962;2023-08-31T00:08:21;100149.59;;;15.01;79.03
77019;BME280;66044;53.142;17.962;2023-08-31T00:10:59;100150.62;;;14.98;78.93
77019;BME280;66044;53.142;17.962;2023-08-31T00:13:29;100154.63;;;14.96;79.18
77019;BME280;66044;53.142;17.962;2023-08-31T00:15:57;100152.98;;;14.94;79.19
77019;BME280;66044;53.142;17.962;2023-08-31T00:18:23;100154.11;;;14.92;78.96
77019;BME280;66044;53.142;17.962;2023-08-31T00:20:50;100153.13;;;14.90;79.37
77019;BME280;66044;53.142;17.962;2023-08-31T00:23:17;100156.21;;;14.89;79.30
77019;BME280;66044;53.142;17.962;2023-08-31T00:25:46;100156.66;;;14.86;79.65
77019;BME280;66044;53.142;17.962;2023-08-31T00:28:15;100163.60;;;14.86;79.40
77019;BME280;66044;53.142;17.962;2023-08-31T00:30:42;100164.27;;;14.85;79.59
77019;BME280;66044;53.142;17.962;2023-08-31T00:33:11;100164.10;;;14.83;79.63
77019;BME280;66044;53.142;17.962;2023-08-31T00:35:38;100164.86;;;14.82;79.71
77019;BME280;66044;53.142;17.962;2023-08-31T00:38:12;100166.62;;;14.82;79.78
77019;BME280;66044;53.142;17.962;2023-08-31T00:40:40;100170.26;;;14.81;79.90
77019;BME280;66044;53.142;17.962;2023-08-31T00:43:13;100171.41;;;14.81;79.82
77019;BME280;66044;53.142;17.962;2023-08-31T00:45:42;100171.02;;;14.81;79.73
77019;BME280;66044;53.142;17.962;2023-08-31T00:48:09;100171.88;;;14.81;79.94
77019;BME280;66044;53.142;17.962;2023-08-31T00:50:36;100167.09;;;14.80;79.99
77019;BME280;66044;53.142;17.962;2023-08-31T00:53:03;100168.09;;;14.80;79.65
77019;BME280;66044;53.142;17.962;2023-08-31T00:55:30;100166.46;;;14.80;79.87
77019;BME280;66044;53.142;17.962;2023-08-31T00:57:58;100169.23;;;14.79;80.09
77019;BME280;66044;53.142;17.962;2023-08-31T01:00:50;100169.68;;;14.78;80.26
77019;BME280;66044;53.142;17.962;2023-08-31T01:08:52;100168.19;;;14.77;80.18
77019;BME280;66044;53.142;17.962;2023-08-31T01:11:40;100165.17;;;14.76;80.16
77019;BME280;66044;53.142;17.962;2023-08-31T01:14:16;100161.92;;;14.77;80.34
77019;BME280;66044;53.142;17.962;2023-08-31T01:16:46;100154.48;;;14.75;80.00
77019;BME280;66044;53.142;17.962;2023-08-31T01:21:50;100155.21;;;14.71;80.18
77019;BME280;66044;53.142;17.962;2023-08-31T01:24:19;100154.89;;;14.70;80.15
77019;BME280;66044;53.142;17.962;2023-08-31T01:26:46;100153.54;;;14.68;80.30
77019;BME280;66044;53.142;17.962;2023-08-31T01:29:13;100156.77;;;14.66;80.28
77019;BME280;66044;53.142;17.962;2023-08-31T01:31:43;100155.44;;;14.65;80.19
77019;BME280;66044;53.142;17.962;2023-08-31T01:34:10;100156.56;;;14.63;80.12
77019;BME280;66044;53.142;17.962;2023-08-31T01:36:40;100154.36;;;14.61;80.10
77019;BME280;66044;53.142;17.962;2023-08-31T01:39:21;100153.42;;;14.59;80.27
77019;BME280;66044;53.142;17.962;2023-08-31T01:41:58;100148.85;;;14.57;80.31
77019;BME280;66044;53.142;17.962;2023-08-31T01:44:26;100146.96;;;14.56;80.29
77019;BME280;66044;53.142;17.962;2023-08-31T01:46:57;100147.95;;;14.54;80.17
77019;BME280;66044;53.142;17.962;2023-08-31T01:49:24;100149.94;;;14.53;80.28
77019;BME280;66044;53.142;17.962;2023-08-31T01:51:51;100151.61;;;14.52;80.34
77019;BME280;66044;53.142;17.962;2023-08-31T01:54:17;100149.53;;;14.51;80.22
77019;BME280;66044;53.142;17.962;2023-08-31T01:56:43;100145.05;;;14.50;80.42
77019;BME280;66044;53.142;17.962;2023-08-31T01:59:10;100143.95;;;14.49;80.40
77019;BME280;66044;53.142;17.962;2023-08-31T02:01:36;100141.53;;;14.48;80.16
77019;BME280;66044;53.142;17.962;2023-08-31T02:04:03;100139.42;;;14.47;80.37
77019;BME280;66044;53.142;17.962;2023-08-31T02:06:29;100146.95;;;14.45;80.40
77019;BME280;66044;53.142;17.962;2023-08-31T02:08:56;100145.09;;;14.44;80.44
77019;BME280;66044;53.142;17.962;2023-08-31T02:11:22;100147.41;;;14.43;80.26
77019;BME280;66044;53.142;17.962;2023-08-31T02:13:49;100145.14;;;14.41;80.31
77019;BME280;66044;53.142;17.962;2023-08-31T02:16:15;100146.90;;;14.40;80.24
77019;BME280;66044;53.142;17.962;2023-08-31T02:18:41;100145.86;;;14.38;80.36
77019;BME280;66044;53.142;17.962;2023-08-31T02:21:08;100150.74;;;14.37;80.40
77019;BME280;66044;53.142;17.962;2023-08-31T02:23:34;100154.27;;;14.34;80.41
77019;BME280;66044;53.142;17.962;2023-08-31T02:26:01;100157.23;;;14.32;80.43
77019;BME280;66044;53.142;17.962;2023-08-31T02:28:27;100154.66;;;14.30;80.55
77019;BME280;66044;53.142;17.962;2023-08-31T02:31:02;100157.27;;;14.27;80.51
77019;BME280;66044;53.142;17.962;2023-08-31T02:33:29;100156.84;;;14.25;80.57
77019;BME280;66044;53.142;17.962;2023-08-31T02:35:55;100157.98;;;14.24;80.53
77019;BME280;66044;53.142;17.962;2023-08-31T02:38:22;100156.94;;;14.22;80.52
77019;BME280;66044;53.142;17.962;2023-08-31T02:40:49;100154.23;;;14.22;80.45
77019;BME280;66044;53.142;17.962;2023-08-31T02:43:15;100150.51;;;14.20;80.44
77019;BME280;66044;53.142;17.962;2023-08-31T02:45:42;100156.34;;;14.18;80.54
77019;BME280;66044;53.142;17.962;2023-08-31T02:48:09;100156.33;;;14.18;80.48
77019;BME280;66044;53.142;17.962;2023-08-31T02:50:36;100154.30;;;14.16;80.50
77019;BME280;66044;53.142;17.962;2023-08-31T02:53:02;100153.42;;;14.15;80.57
77019;BME280;66044;53.142;17.962;2023-08-31T02:55:32;100156.73;;;14.14;80.48
77019;BME280;66044;53.142;17.962;2023-08-31T02:57:58;100162.75;;;14.13;80.51
77019;BME280;66044;53.142;17.962;2023-08-31T03:00:25;100164.36;;;14.13;80.66
77019;BME280;66044;53.142;17.962;2023-08-31T03:02:52;100169.76;;;14.13;80.51
77019;BME280;66044;53.142;17.962;2023-08-31T03:05:19;100170.92;;;14.13;80.49
77019;BME280;66044;53.142;17.962;2023-08-31T03:07:47;100168.67;;;14.12;80.61
77019;BME280;66044;53.142;17.962;2023-08-31T03:10:14;100165.14;;;14.12;80.65
77019;BME280;66044;53.142;17.962;2023-08-31T03:12:40;100163.90;;;14.13;80.69
77019;BME280;66044;53.142;17.962;2023-08-31T03:15:07;100164.38;;;14.15;80.67
77019;BME280;66044;53.142;17.962;2023-08-31T03:17:34;100163.53;;;14.15;80.66
77019;BME280;66044;53.142;17.962;2023-08-31T03:20:01;100166.72;;;14.16;80.67
77019;BME280;66044;53.142;17.962;2023-08-31T03:22:27;100166.19;;;14.17;80.56
77019;BME280;66044;53.142;17.962;2023-08-31T03:24:54;100164.84;;;14.18;80.34
77019;BME280;66044;53.142;17.962;2023-08-31T03:27:20;100166.87;;;14.19;80.47
77019;BME280;66044;53.142;17.962;2023-08-31T03:29:46;100171.50;;;14.20;80.43
77019;BME280;66044;53.142;17.962;2023-08-31T03:32:13;100172.36;;;14.20;80.54
77019;BME280;66044;53.142;17.962;2023-08-31T03:34:39;100175.44;;;14.20;80.59
77019;BME280;66044;53.142;17.962;2023-08-31T03:37:06;100175.29;;;14.21;80.37
77019;BME280;66044;53.142;17.962;2023-08-31T03:39:32;100175.29;;;14.22;80.68
77019;BME280;66044;53.142;17.962;2023-08-31T03:41:59;100177.56;;;14.24;80.65
77019;BME280;66044;53.142;17.962;2023-08-31T03:44:25;100177.42;;;14.24;80.58
77019;BME280;66044;53.142;17.962;2023-08-31T03:46:51;100175.45;;;14.26;80.66
77019;BME280;66044;53.142;17.962;2023-08-31T03:49:18;100174.23;;;14.26;80.60
77019;BME280;66044;53.142;17.962;2023-08-31T03:51:44;100173.70;;;14.26;80.52
77019;BME280;66044;53.142;17.962;2023-08-31T03:54:11;100173.30;;;14.26;80.60
77019;BME280;66044;53.142;17.962;2023-08-31T03:56:39;100177.02;;;14.27;80.59
77019;BME280;66044;53.142;17.962;2023-08-31T03:59:05;100183.80;;;14.27;80.58
77019;BME280;66044;53.142;17.962;2023-08-31T04:01:32;100176.40;;;14.28;80.47
77019;BME280;66044;53.142;17.962;2023-08-31T04:03:59;100176.72;;;14.28;80.48
77019;BME280;66044;53.142;17.962;2023-08-31T04:06:25;100177.57;;;14.29;80.49
77019;BME280;66044;53.142;17.962;2023-08-31T04:08:51;100175.87;;;14.28;80.46
77019;BME280;66044;53.142;17.962;2023-08-31T04:11:18;100175.41;;;14.27;80.41
77019;BME280;66044;53.142;17.962;2023-08-31T04:13:44;100174.24;;;14.28;80.40
77019;BME280;66044;53.142;17.962;2023-08-31T04:16:11;100170.92;;;14.29;80.54
77019;BME280;66044;53.142;17.962;2023-08-31T04:18:37;100172.66;;;14.31;80.39
77019;BME280;66044;53.142;17.962;2023-08-31T04:21:05;100172.39;;;14.32;80.38
77019;BME280;66044;53.142;17.962;2023-08-31T04:23:32;100172.10;;;14.34;80.38
77019;BME280;66044;53.142;17.962;2023-08-31T04:25:58;100172.19;;;14.34;80.37
77019;BME280;66044;53.142;17.962;2023-08-31T04:28:25;100175.44;;;14.35;80.30
77019;BME280;66044;53.142;17.962;2023-08-31T04:30:52;100178.27;;;14.38;80.45
77019;BME280;66044;53.142;17.962;2023-08-31T04:33:18;100178.68;;;14.39;80.30
77019;BME280;66044;53.142;17.962;2023-08-31T04:35:45;100180.16;;;14.40;80.33
77019;BME280;66044;53.142;17.962;2023-08-31T04:38:11;100181.05;;;14.43;80.40
77019;BME280;66044;53.142;17.962;2023-08-31T04:40:37;100183.30;;;14.48;80.48
77019;BME280;66044;53.142;17.962;2023-08-31T04:43:04;100182.04;;;14.52;80.30
77019;BME280;66044;53.142;17.962;2023-08-31T04:45:30;100179.11;;;14.56;80.34
77019;BME280;66044;53.142;17.962;2023-08-31T04:47:57;100178.69;;;14.60;80.26
77019;BME280;66044;53.142;17.962;2023-08-31T04:50:25;100180.11;;;14.62;80.26
77019;BME280;66044;53.142;17.962;2023-08-31T04:52:51;100173.52;;;14.65;80.04
77019;BME280;66044;53.142;17.962;2023-08-31T04:55:21;100176.32;;;14.68;80.06
77019;BME280;66044;53.142;17.962;2023-08-31T04:57:47;100181.01;;;14.70;80.07
77019;BME280;66044;53.142;17.962;2023-08-31T05:00:15;100188.08;;;14.73;79.96
77019;BME280;66044;53.142;17.962;2023-08-31T05:02:41;100194.04;;;14.76;79.72
77019;BME280;66044;53.142;17.962;2023-08-31T05:05:08;100194.30;;;14.77;79.91
77019;BME280;66044;53.142;17.962;2023-08-31T05:07:35;100196.20;;;14.80;79.72
77019;BME280;66044;53.142;17.962;2023-08-31T05:10:02;100201.98;;;14.85;79.61
77019;BME280;66044;53.142;17.962;2023-08-31T05:12:29;100201.14;;;14.91;79.55
77019;BME280;66044;53.142;17.962;2023-08-31T05:14:55;100199.07;;;14.97;79.68
77019;BME280;66044;53.142;17.962;2023-08-31T05:17:22;100199.55;;;15.05;79.53
77019;BME280;66044;53.142;17.962;2023-08-31T05:19:48;100203.85;;;15.14;79.42
77019;BME280;66044;53.142;17.962;2023-08-31T05:22:16;100202.64;;;15.24;79.35
77019;BME280;66044;53.142;17.962;2023-08-31T05:24:43;100200.83;;;15.33;79.11
77019;BME280;66044;53.142;17.962;2023-08-31T05:27:10;100201.08;;;15.40;79.03
77019;BME280;66044;53.142;17.962;2023-08-31T05:29:36;100192.03;;;15.48;79.09
77019;BME280;66044;53.142;17.962;2023-08-31T05:32:03;100188.23;;;15.54;78.61
77019;BME280;66044;53.142;17.962;2023-08-31T05:34:30;100192.40;;;15.59;78.49
77019;BME280;66044;53.142;17.962;2023-08-31T05:36:59;100188.11;;;15.61;78.33
77019;BME280;66044;53.142;17.962;2023-08-31T05:39:25;100188.13;;;15.62;78.14
77019;BME280;66044;53.142;17.962;2023-08-31T05:41:52;100190.75;;;15.64;78.07
77019;BME280;66044;53.142;17.962;2023-08-31T05:44:18;100199.73;;;15.64;77.91
77019;BME280;66044;53.142;17.962;2023-08-31T05:46:45;100201.87;;;15.60;77.85
77019;BME280;66044;53.142;17.962;2023-08-31T05:49:11;100201.90;;;15.64;77.99
77019;BME280;66044;53.142;17.962;2023-08-31T05:51:38;100209.41;;;15.66;77.61
77019;BME280;66044;53.142;17.962;2023-08-31T05:54:04;100208.89;;;15.66;77.78
77019;BME280;66044;53.142;17.962;2023-08-31T05:56:32;100207.56;;;15.73;77.71
77019;BME280;66044;53.142;17.962;2023-08-31T05:58:58;100205.80;;;15.81;77.50
77019;BME280;66044;53.142;17.962;2023-08-31T06:01:25;100207.85;;;15.94;77.57
77019;BME280;66044;53.142;17.962;2023-08-31T06:03:51;100214.57;;;16.09;77.50
77019;BME280;66044;53.142;17.962;2023-08-31T06:06:18;100214.91;;;16.22;77.33
77019;BME280;66044;53.142;17.962;2023-08-31T06:08:44;100217.38;;;16.37;77.14
77019;BME280;66044;53.142;17.962;2023-08-31T06:11:11;100217.55;;;16.51;76.75
77019;BME280;66044;53.142;17.962;2023-08-31T06:13:40;100216.62;;;16.60;76.31
77019;BME280;66044;53.142;17.962;2023-08-31T06:16:06;100217.08;;;16.68;76.14
77019;BME280;66044;53.142;17.962;2023-08-31T06:18:33;100216.31;;;16.82;75.93
77019;BME280;66044;53.142;17.962;2023-08-31T06:21:00;100217.50;;;17.20;75.42
77019;BME280;66044;53.142;17.962;2023-08-31T06:23:26;100227.13;;;19.83;72.24
77019;BME280;66044;53.142;17.962;2023-08-31T06:25:53;100233.83;;;22.76;67.95
77019;BME280;66044;53.142;17.962;2023-08-31T06:28:19;100238.16;;;24.88;64.65
77019;BME280;66044;53.142;17.962;2023-08-31T06:30:45;100239.65;;;26.64;61.36
77019;BME280;66044;53.142;17.962;2023-08-31T06:33:14;100242.92;;;28.09;55.78
77019;BME280;66044;53.142;17.962;2023-08-31T06:35:41;100247.89;;;29.44;52.13
77019;BME280;66044;53.142;17.962;2023-08-31T06:38:07;100246.95;;;30.84;49.03
77019;BME280;66044;53.142;17.962;2023-08-31T06:40:33;100241.27;;;31.98;47.76
77019;BME280;66044;53.142;17.962;2023-08-31T06:43:00;100243.37;;;32.76;46.15
77019;BME280;66044;53.142;17.962;2023-08-31T06:45:26;100244.62;;;33.70;43.25
77019;BME280;66044;53.142;17.962;2023-08-31T06:47:53;100244.90;;;34.86;40.01
77019;BME280;66044;53.142;17.962;2023-08-31T06:50:19;100248.99;;;36.27;37.45
77019;BME280;66044;53.142;17.962;2023-08-31T06:52:46;100256.25;;;37.65;35.70
77019;BME280;66044;53.142;17.962;2023-08-31T06:55:13;100254.36;;;38.81;32.15
77019;BME280;66044;53.142;17.962;2023-08-31T06:57:39;100246.20;;;39.55;31.06
77019;BME280;66044;53.142;17.962;2023-08-31T07:00:06;100249.77;;;39.79;29.49
77019;BME280;66044;53.142;17.962;2023-08-31T07:02:34;100253.73;;;40.08;30.70
77019;BME280;66044;53.142;17.962;2023-08-31T07:05:00;100252.96;;;41.00;30.00
77019;BME280;66044;53.142;17.962;2023-08-31T07:07:27;100259.21;;;42.20;29.09
77019;BME280;66044;53.142;17.962;2023-08-31T07:09:54;100257.67;;;43.23;27.32
77019;BME280;66044;53.142;17.962;2023-08-31T07:12:21;100256.39;;;44.22;26.69
77019;BME280;66044;53.142;17.962;2023-08-31T07:14:47;100254.70;;;45.21;25.85
77019;BME280;66044;53.142;17.962;2023-08-31T07:17:17;100257.27;;;46.20;24.58
77019;BME280;66044;53.142;17.962;2023-08-31T07:19:44;100254.62;;;46.92;22.97
77019;BME280;66044;53.142;17.962;2023-08-31T07:22:10;100256.50;;;47.23;22.17
77019;BME280;66044;53.142;17.962;2023-08-31T07:24:38;100247.23;;;47.45;20.76
77019;BME280;66044;53.142;17.962;2023-08-31T07:27:04;100240.33;;;47.38;20.39
77019;BME280;66044;53.142;17.962;2023-08-31T07:29:31;100236.03;;;47.75;19.61
77019;BME280;66044;53.142;17.962;2023-08-31T07:31:58;100237.02;;;47.47;18.61
77019;BME280;66044;53.142;17.962;2023-08-31T07:34:24;100239.15;;;47.40;19.97
77019;BME280;66044;53.142;17.962;2023-08-31T07:36:53;100243.45;;;48.00;19.53
77019;BME280;66044;53.142;17.962;2023-08-31T07:39:19;100245.70;;;48.78;19.03
77019;BME280;66044;53.142;17.962;2023-08-31T07:41:46;100246.23;;;49.26;17.72
77019;BME280;66044;53.142;17.962;2023-08-31T07:44:12;100242.89;;;49.19;16.84
77019;BME280;66044;53.142;17.962;2023-08-31T07:46:38;100245.47;;;49.28;16.88
77019;BME280;66044;53.142;17.962;2023-08-31T07:49:05;100242.47;;;49.32;16.85
77019;BME280;66044;53.142;17.962;2023-08-31T07:51:32;100239.82;;;49.53;16.78
77019;BME280;66044;53.142;17.962;2023-08-31T07:53:59;100228.00;;;49.64;15.62
77019;BME280;66044;53.142;17.962;2023-08-31T07:56:26;100226.59;;;49.15;15.63
77019;BME280;66044;53.142;17.962;2023-08-31T07:58:53;100233.98;;;48.68;15.65
77019;BME280;66044;53.142;17.962;2023-08-31T08:01:19;100234.88;;;48.19;16.12
77019;BME280;66044;53.142;17.962;2023-08-31T08:03:46;100237.86;;;48.68;16.45
77019;BME280;66044;53.142;17.962;2023-08-31T08:06:12;100240.34;;;48.71;16.10
77019;BME280;66044;53.142;17.962;2023-08-31T08:08:40;100234.98;;;47.20;16.51
77019;BME280;66044;53.142;17.962;2023-08-31T08:11:06;100226.77;;;45.17;17.67
77019;BME280;66044;53.142;17.962;2023-08-31T08:13:33;100228.43;;;42.83;18.81
77019;BME280;66044;53.142;17.962;2023-08-31T08:15:59;100221.65;;;40.98;20.39
77019;BME280;66044;53.142;17.962;2023-08-31T08:18:26;100214.77;;;39.76;21.53
77019;BME280;66044;53.142;17.962;2023-08-31T08:20:53;100208.04;;;39.56;21.59
77019;BME280;66044;53.142;17.962;2023-08-31T08:23:19;100209.10;;;39.51;21.82
77019;BME280;66044;53.142;17.962;2023-08-31T08:25:48;100209.02;;;38.79;22.21
77019;BME280;66044;53.142;17.962;2023-08-31T08:28:14;100213.70;;;37.91;23.30
77019;BME280;66044;53.142;17.962;2023-08-31T08:30:40;100212.91;;;36.96;23.89
77019;BME280;66044;53.142;17.962;2023-08-31T08:33:08;100207.31;;;35.82;24.68
77019;BME280;66044;53.142;17.962;2023-08-31T08:35:37;100204.46;;;34.77;26.17
77019;BME280;66044;53.142;17.962;2023-08-31T08:38:04;100208.64;;;33.97;27.05
77019;BME280;66044;53.142;17.962;2023-08-31T08:40:31;100204.02;;;33.45;28.07
77019;BME280;66044;53.142;17.962;2023-08-31T08:43:01;100204.41;;;32.81;28.66
77019;BME280;66044;53.142;17.962;2023-08-31T08:45:36;100201.14;;;32.19;29.67
77019;BME280;66044;53.142;17.962;2023-08-31T08:48:05;100203.42;;;31.58;30.37
77019;BME280;66044;53.142;17.962;2023-08-31T08:50:35;100199.36;;;30.92;31.31
77019;BME280;66044;53.142;17.962;2023-08-31T08:53:03;100195.95;;;30.39;32.02
77019;BME280;66044;53.142;17.962;2023-08-31T08:55:30;100198.02;;;29.86;32.87
77019;BME280;66044;53.142;17.962;2023-08-31T08:57:58;100200.60;;;29.21;33.70
77019;BME280;66044;53.142;17.962;2023-08-31T09:00:26;100199.71;;;28.67;34.74
77019;BME280;66044;53.142;17.962;2023-08-31T09:02:54;100196.23;;;28.34;35.65
77019;BME280;66044;53.142;17.962;2023-08-31T09:05:20;100201.20;;;27.85;36.50
77019;BME280;66044;53.142;17.962;2023-08-31T09:08:04;100200.34;;;27.44;37.26
77019;BME280;66044;53.142;17.962;2023-08-31T09:10:41;100203.12;;;27.14;38.43
77019;BME280;66044;53.142;17.962;2023-08-31T09:13:09;100198.10;;;26.87;38.90
77019;BME280;66044;53.142;17.962;2023-08-31T09:15:41;100198.02;;;26.49;39.61
77019;BME280;66044;53.142;17.962;2023-08-31T09:18:15;100195.89;;;26.11;40.50
77019;BME280;66044;53.142;17.962;2023-08-31T09:20:43;100196.09;;;25.77;41.17
77019;BME280;66044;53.142;17.962;2023-08-31T09:23:12;100194.34;;;25.54;41.90
77019;BME280;66044;53.142;17.962;2023-08-31T09:25:48;100205.14;;;25.45;42.18
77019;BME280;66044;53.142;17.962;2023-08-31T09:28:26;100204.17;;;25.51;42.24
77019;BME280;66044;53.142;17.962;2023-08-31T09:31:04;100207.50;;;25.58;42.20
77019;BME280;66044;53.142;17.962;2023-08-31T09:33:31;100209.67;;;25.62;42.38
77019;BME280;66044;53.142;17.962;2023-08-31T09:35:59;100210.36;;;25.78;42.56
77019;BME280;66044;53.142;17.962;2023-08-31T09:38:27;100219.29;;;26.05;42.53
77019;BME280;66044;53.142;17.962;2023-08-31T09:41:04;100220.36;;;26.15;42.11
77019;BME280;66044;53.142;17.962;2023-08-31T09:43:32;100222.52;;;26.12;41.88
77019;BME280;66044;53.142;17.962;2023-08-31T09:45:59;100226.04;;;26.10;41.43
77019;BME280;66044;53.142;17.962;2023-08-31T09:48:26;100229.99;;;25.94;41.36
77019;BME280;66044;53.142;17.962;2023-08-31T09:50:54;100230.91;;;25.80;41.47
77019;BME280;66044;53.142;17.962;2023-08-31T09:53:24;100234.61;;;25.69;41.77
77019;BME280;66044;53.142;17.962;2023-08-31T09:55:51;100234.27;;;25.60;41.89
77019;BME280;66044;53.142;17.962;2023-08-31T09:58:19;100230.45;;;25.50;42.00
77019;BME280;66044;53.142;17.962;2023-08-31T10:00:49;100230.53;;;25.42;42.34
77019;BME280;66044;53.142;17.962;2023-08-31T10:03:16;100229.88;;;25.29;42.61
77019;BME280;66044;53.142;17.962;2023-08-31T10:05:43;100229.88;;;25.16;42.86
77019;BME280;66044;53.142;17.962;2023-08-31T10:08:11;100228.72;;;25.06;43.11
77019;BME280;66044;53.142;17.962;2023-08-31T10:10:39;100228.89;;;25.03;43.54
77019;BME280;66044;53.142;17.962;2023-08-31T10:13:06;100230.62;;;25.09;43.87
77019;BME280;66044;53.142;17.962;2023-08-31T10:15:34;100228.64;;;25.15;43.59
77019;BME280;66044;53.142;17.962;2023-08-31T10:18:04;100230.63;;;25.28;43.68
77019;BME280;66044;53.142;17.962;2023-08-31T10:20:31;100229.70;;;25.27;43.62
77019;BME280;66044;53.142;17.962;2023-08-31T10:23:02;100227.34;;;25.14;43.58
77019;BME280;66044;53.142;17.962;2023-08-31T10:28:24;100231.65;;;24.73;44.07
77019;BME280;66044;53.142;17.962;2023-08-31T10:31:17;100234.86;;;24.46;44.49
77019;BME280;66044;53.142;17.962;2023-08-31T10:33:46;100233.38;;;24.08;45.25
77019;BME280;66044;53.142;17.962;2023-08-31T10:36:19;100242.30;;;23.79;45.61
77019;BME280;66044;53.142;17.962;2023-08-31T10:39:13;100252.21;;;23.46;46.29
77019;BME280;66044;53.142;17.962;2023-08-31T10:41:42;100251.89;;;23.07;47.70
77019;BME280;66044;53.142;17.962;2023-08-31T10:44:19;100259.33;;;22.72;48.88
77019;BME280;66044;53.142;17.962;2023-08-31T10:46:48;100264.48;;;22.45;49.65
77019;BME280;66044;53.142;17.962;2023-08-31T10:49:17;100265.89;;;22.24;50.49
77019;BME280;66044;53.142;17.962;2023-08-31T10:54:23;100270.55;;;21.93;52.28
77019;BME280;66044;53.142;17.962;2023-08-31T10:59:24;100275.98;;;21.66;52.90
77019;BME280;66044;53.142;17.962;2023-08-31T11:04:26;100280.15;;;21.24;53.84
77019;BME280;66044;53.142;17.962;2023-08-31T11:07:16;100280.23;;;21.07;54.20
77019;BME280;66044;53.142;17.962;2023-08-31T11:09:45;100280.45;;;20.85;54.51
77019;BME280;66044;53.142;17.962;2023-08-31T11:12:13;100280.22;;;20.67;55.04
77019;BME280;66044;53.142;17.962;2023-08-31T11:14:41;100287.60;;;20.42;55.31
77019;BME280;66044;53.142;17.962;2023-08-31T11:17:08;100288.60;;;20.19;55.85
77019;BME280;66044;53.142;17.962;2023-08-31T11:19:35;100287.52;;;20.06;56.52
77019;BME280;66044;53.142;17.962;2023-08-31T11:22:03;100281.62;;;20.00;56.73
77019;BME280;66044;53.142;17.962;2023-08-31T11:24:31;100280.41;;;19.94;57.06
77019;BME280;66044;53.142;17.962;2023-08-31T11:26:58;100277.17;;;19.91;57.41
77019;BME280;66044;53.142;17.962;2023-08-31T11:29:25;100274.83;;;19.88;57.44
77019;BME280;66044;53.142;17.962;2023-08-31T11:31:51;100282.42;;;19.84;57.89
77019;BME280;66044;53.142;17.962;2023-08-31T11:34:18;100287.27;;;19.80;57.94
77019;BME280;66044;53.142;17.962;2023-08-31T11:36:46;100284.71;;;19.76;58.49
77019;BME280;66044;53.142;17.962;2023-08-31T11:39:13;100283.56;;;19.71;58.50
77019;BME280;66044;53.142;17.962;2023-08-31T11:41:40;100283.39;;;19.74;58.77
77019;BME280;66044;53.142;17.962;2023-08-31T11:44:09;100286.92;;;19.85;58.94
77019;BME280;66044;53.142;17.962;2023-08-31T11:46:37;100288.70;;;20.00;58.85
77019;BME280;66044;53.142;17.962;2023-08-31T11:49:05;100291.42;;;20.15;58.53
77019;BME280;66044;53.142;17.962;2023-08-31T11:51:33;100292.46;;;20.24;58.16
77019;BME280;66044;53.142;17.962;2023-08-31T11:54:04;100293.45;;;20.27;58.03
77019;BME280;66044;53.142;17.962;2023-08-31T11:56:43;100286.52;;;20.43;57.91
77019;BME280;66044;53.142;17.962;2023-08-31T11:59:11;100292.17;;;20.67;56.98
77019;BME280;66044;53.142;17.962;2023-08-31T12:01:39;100280.03;;;20.96;56.93
77019;BME280;66044;53.142;17.962;2023-08-31T12:04:14;100282.04;;;21.24;56.23
77019;BME280;66044;53.142;17.962;2023-08-31T12:06:41;100285.02;;;21.41;55.62
77019;BME280;66044;53.142;17.962;2023-08-31T12:09:08;100271.58;;;21.39;54.98
77019;BME280;66044;53.142;17.962;2023-08-31T12:11:39;100281.48;;;21.25;54.62
77019;BME280;66044;53.142;17.962;2023-08-31T12:14:18;100284.16;;;21.04;54.58
77019;BME280;66044;53.142;17.962;2023-08-31T12:16:45;100298.41;;;20.74;54.72
77019;BME280;66044;53.142;17.962;2023-08-31T12:19:12;100297.10;;;20.45;54.93
77019;BME280;66044;53.142;17.962;2023-08-31T12:21:39;100290.98;;;20.25;55.30
77019;BME280;66044;53.142;17.962;2023-08-31T12:24:06;100282.80;;;20.12;55.13
77019;BME280;66044;53.142;17.962;2023-08-31T12:26:34;100272.77;;;20.09;55.32
77019;BME280;66044;53.142;17.962;2023-08-31T12:29:02;100270.25;;;20.13;55.50
77019;BME280;66044;53.142;17.962;2023-08-31T12:31:31;100279.17;;;20.18;55.44
77019;BME280;66044;53.142;17.962;2023-08-31T12:33:59;100289.13;;;20.22;55.61
77019;BME280;66044;53.142;17.962;2023-08-31T12:36:33;100297.44;;;20.25;55.55
77019;BME280;66044;53.142;17.962;2023-08-31T12:38:59;100301.16;;;20.28;55.40
77019;BME280;66044;53.142;17.962;2023-08-31T12:41:33;100309.98;;;20.29;55.29
77019;BME280;66044;53.142;17.962;2023-08-31T12:43:59;100303.40;;;20.31;54.69
77019;BME280;66044;53.142;17.962;2023-08-31T12:46:26;100310.88;;;20.37;54.82
77019;BME280;66044;53.142;17.962;2023-08-31T12:48:52;100304.42;;;20.44;54.51
77019;BME280;66044;53.142;17.962;2023-08-31T12:51:19;100302.23;;;20.46;54.07
77019;BME280;66044;53.142;17.962;2023-08-31T12:53:45;100303.28;;;20.42;54.01
77019;BME280;66044;53.142;17.962;2023-08-31T12:56:13;100300.56;;;20.39;53.76
77019;BME280;66044;53.142;17.962;2023-08-31T12:58:41;100303.80;;;20.35;53.70
77019;BME280;66044;53.142;17.962;2023-08-31T13:01:07;100307.61;;;20.30;53.67
77019;BME280;66044;53.142;17.962;2023-08-31T13:03:34;100306.56;;;20.25;53.53